Time;durP1;ratioP1;P1;durP2;ratioP2;P2;SDS_P1;SDS_P2;PMS_P1;PMS_P2;Temp;Humidity;BMP_temperature;BMP_pressure;BME280_temperature;BME280_humidity;BME280_pressure;Samples;Min_cycle;Max_cycle;Signal;HPM_P1;HPM_P2
2024/02/21 00:00:18;;;;;;;;;;;16.00;68.90;;;;;;5035728;28;20002;-79
2024/02/21 00:02:44;;;;;;;;;;;16.00;68.50;;;;;;5035390;28;19925;-79
2024/02/21 00:05:10;;;;;;;;;;;16.00;68.90;;;;;;5035743;28;20003;-78
2024/02/21 00:07:36;;;;;;;;;;;16.00;69.10;;;;;;5035433;28;19909;-69
2024/02/21 00:10:03;;;;;;;;;;;16.60;69.30;;;;;;5035587;28;20312;-69
2024/02/21 00:12:29;;;;;;;;;;;16.00;68.30;;;;;;5035579;28;20264;-69
2024/02/21 00:14:54;;;;;;;;;;;16.10;68.70;;;;;;5035113;28;19964;-69
2024/02/21 00:17:20;;;;;;;;;;;16.10;68.70;;;;;;5035419;28;19976;-69
2024/02/21 00:19:46;;;;;;;;;;;16.10;68.80;;;;;;5035003;28;20352;-69
2024/02/21 00:22:12;;;;;;;;;;;16.10;68.80;;;;;;5035768;28;19949;-78
2024/02/21 00:24:38;;;;;;;;;;;16.10;68.60;;;;;;5035253;28;19915;-79
2024/02/21 00:27:04;;;;;;;;;;;16.10;68.90;;;;;;5035262;28;19909;-79
2024/02/21 00:29:30;;;;;;;;;;;16.10;68.10;;;;;;5035178;28;19909;-79
2024/02/21 00:31:55;;;;;;;;;;;16.10;68.60;;;;;;5034974;28;19978;-79
2024/02/21 00:34:21;;;;;;;;;;;16.10;68.20;;;;;;5035002;28;19909;-79
2024/02/21 00:36:46;;;;;;;;;;;16.00;68.80;;;;;;5034751;28;20283;-79
2024/02/21 00:39:12;;;;;;;;;;;16.00;68.60;;;;;;5034821;28;19919;-79
2024/02/21 00:41:37;;;;;;;;;;;16.10;68.80;;;;;;5034692;28;19909;-79
2024/02/21 00:44:05;;;;;;;;;;;16.10;68.90;;;;;;5034684;28;19948;-79
2024/02/21 00:46:31;;;;;;;;;;;16.10;68.10;;;;;;5034715;28;19932;-79
2024/02/21 00:48:56;;;;;;;;;;;16.10;68.80;;;;;;5034739;28;19909;-79
2024/02/21 00:51:22;;;;;;;;;;;16.30;68.80;;;;;;5035293;28;19910;-79
2024/02/21 00:53:47;;;;;;;;;;;16.10;68.70;;;;;;5034551;28;19910;-79
2024/02/21 00:56:12;;;;;;;;;;;16.10;68.70;;;;;;5034428;28;19925;-79
2024/02/21 00:58:38;;;;;;;;;;;16.20;68.80;;;;;;5034514;28;20374;-79
2024/02/21 01:01:03;;;;;;;;;;;16.10;68.50;;;;;;5033836;28;19915;-79
2024/02/21 01:03:29;;;;;;;;;;;16.20;68.10;;;;;;5034223;28;20299;-79
2024/02/21 01:05:54;;;;;;;;;;;16.20;68.40;;;;;;5034257;28;19948;-81
2024/02/21 01:08:20;;;;;;;;;;;16.20;68.70;;;;;;5034439;28;19909;-81
2024/02/21 01:10:46;;;;;;;;;;;16.20;68.70;;;;;;5034252;28;19974;-81
2024/02/21 01:13:12;;;;;;;;;;;16.10;69.00;;;;;;5034076;28;20004;-81
2024/02/21 01:15:38;;;;;;;;;;;16.20;68.50;;;;;;5033994;28;19960;-81
2024/02/21 01:18:05;;;;;;;;;;;16.00;68.60;;;;;;5034373;28;19916;-80
2024/02/21 01:20:30;;;;;;;;;;;16.30;68.70;;;;;;5034340;28;19920;-79
2024/02/21 01:22:56;;;;;;;;;;;16.20;69.00;;;;;;5034289;28;20272;-79
2024/02/21 01:25:23;;;;;;;;;;;16.20;68.80;;;;;;5033955;28;19916;-79
2024/02/21 01:27:48;;;;;;;;;;;16.20;68.80;;;;;;5033952;28;19916;-79
2024/02/21 01:30:14;;;;;;;;;;;16.20;69.00;;;;;;5033843;28;20339;-78
2024/02/21 01:32:39;;;;;;;;;;;16.20;68.50;;;;;;5034072;28;19955;-79
2024/02/21 01:35:05;;;;;;;;;;;16.20;69.00;;;;;;5033699;28;20286;-78
2024/02/21 01:37:30;;;;;;;;;;;16.20;68.50;;;;;;5033673;28;19976;-79
2024/02/21 01:39:56;;;;;;;;;;;16.30;68.50;;;;;;5033709;28;19909;-79
2024/02/21 01:42:21;;;;;;;;;;;16.20;68.90;;;;;;5033584;28;19913;-79
2024/02/21 01:44:47;;;;;;;;;;;16.20;68.70;;;;;;5033541;28;19944;-79
2024/02/21 01:47:13;;;;;;;;;;;16.30;68.70;;;;;;5033736;28;19909;-79
2024/02/21 01:49:42;;;;;;;;;;;16.20;68.90;;;;;;5033788;28;19909;-79
2024/02/21 01:52:09;;;;;;;;;;;16.30;68.80;;;;;;5033398;28;19963;-79
2024/02/21 01:54:34;;;;;;;;;;;16.30;69.20;;;;;;5033267;28;19952;-79
2024/02/21 01:57:00;;;;;;;;;;;16.30;68.80;;;;;;5033812;28;19960;-79
2024/02/21 01:59:25;;;;;;;;;;;16.30;68.80;;;;;;5033273;28;20003;-79
2024/02/21 02:01:52;;;;;;;;;;;16.30;68.40;;;;;;5033023;28;19967;-78
2024/02/21 02:04:18;;;;;;;;;;;16.30;68.80;;;;;;5033210;28;19910;-79
2024/02/21 02:06:44;;;;;;;;;;;16.20;68.10;;;;;;5033365;28;19963;-79
2024/02/21 02:09:10;;;;;;;;;;;16.20;68.70;;;;;;5033197;28;19952;-79
2024/02/21 02:11:35;;;;;;;;;;;16.20;68.50;;;;;;5032158;28;19909;-79
2024/02/21 02:14:01;;;;;;;;;;;16.30;68.30;;;;;;5032961;28;19913;-79
2024/02/21 02:16:26;;;;;;;;;;;16.30;68.80;;;;;;5032910;28;20039;-79
2024/02/21 02:18:52;;;;;;;;;;;16.30;68.60;;;;;;5033007;28;19909;-79
2024/02/21 02:21:24;;;;;;;;;;;16.30;68.80;;;;;;5032786;28;19917;-79
2024/02/21 02:23:49;;;;;;;;;;;16.30;64.30;;;;;;5033145;28;19909;-79
2024/02/21 02:26:15;;;;;;;;;;;16.30;68.60;;;;;;5033509;28;20003;-79
2024/02/21 02:28:41;;;;;;;;;;;16.30;68.50;;;;;;5033031;28;19913;-79
2024/02/21 02:31:07;;;;;;;;;;;16.30;68.60;;;;;;5032670;28;20334;-80
2024/02/21 02:33:33;;;;;;;;;;;16.30;68.60;;;;;;5032619;28;19963;-79
2024/02/21 02:35:59;;;;;;;;;;;16.30;68.60;;;;;;5032873;28;19921;-79
2024/02/21 02:38:25;;;;;;;;;;;16.30;68.50;;;;;;5033060;28;20241;-79
2024/02/21 02:40:51;;;;;;;;;;;16.30;68.30;;;;;;5032474;28;19917;-79
2024/02/21 02:43:17;;;;;;;;;;;16.30;68.60;;;;;;5032402;28;19916;-79
2024/02/21 02:45:43;;;;;;;;;;;16.30;68.40;;;;;;5032595;28;19916;-79
2024/02/21 02:48:09;;;;;;;;;;;16.70;68.50;;;;;;5032241;28;19909;-79
2024/02/21 02:50:35;;;;;;;;;;;16.30;68.20;;;;;;5032251;28;20384;-79
2024/02/21 02:53:01;;;;;;;;;;;16.20;68.30;;;;;;5033237;28;19913;-79
2024/02/21 02:55:26;;;;;;;;;;;16.30;68.60;;;;;;5032614;28;20015;-79
2024/02/21 02:57:53;;;;;;;;;;;16.30;68.40;;;;;;5032419;28;19940;-79
2024/02/21 03:00:19;;;;;;;;;;;16.30;68.40;;;;;;5032194;28;19916;-78
2024/02/21 03:02:46;;;;;;;;;;;16.20;67.90;;;;;;5031961;28;19921;-79
2024/02/21 03:05:13;;;;;;;;;;;16.30;68.60;;;;;;5032321;28;20299;-79
2024/02/21 03:07:38;;;;;;;;;;;16.30;68.40;;;;;;5032397;28;20269;-79
2024/02/21 03:10:04;;;;;;;;;;;16.30;68.50;;;;;;5032322;28;20031;-79
2024/02/21 03:12:30;;;;;;;;;;;16.00;67.10;;;;;;5032197;28;19915;-79
2024/02/21 03:14:55;;;;;;;;;;;16.20;68.30;;;;;;5032023;28;20364;-79
2024/02/21 03:17:21;;;;;;;;;;;16.20;68.30;;;;;;5032085;28;19921;-79
2024/02/21 03:19:47;;;;;;;;;;;16.20;68.30;;;;;;5031989;28;20354;-79
2024/02/21 03:22:12;;;;;;;;;;;16.20;68.30;;;;;;5032466;28;19909;-79
2024/02/21 03:24:38;;;;;;;;;;;16.20;68.50;;;;;;5035386;28;20008;-79
2024/02/21 03:27:03;;;;;;;;;;;16.30;68.10;;;;;;5018168;28;20376;-79
2024/02/21 03:29:29;;;;;;;;;;;16.20;67.80;;;;;;5036107;28;19909;-79
2024/02/21 03:31:54;;;;;;;;;;;16.20;68.40;;;;;;5036006;28;20359;-78
2024/02/21 03:34:20;;;;;;;;;;;16.30;68.60;;;;;;5036050;28;19971;-79
2024/02/21 03:36:45;;;;;;;;;;;16.20;68.60;;;;;;5035790;28;19986;-79
2024/02/21 03:39:11;;;;;;;;;;;16.20;68.40;;;;;;5035944;28;19921;-79
2024/02/21 03:41:37;;;;;;;;;;;16.30;68.30;;;;;;5035973;28;19916;-78
2024/02/21 03:44:02;;;;;;;;;;;16.20;68.20;;;;;;5035734;28;19909;-79
2024/02/21 03:46:28;;;;;;;;;;;16.20;68.40;;;;;;5035797;28;19916;-79
2024/02/21 03:48:53;;;;;;;;;;;16.20;68.30;;;;;;5035628;28;19909;-79
2024/02/21 03:51:19;;;;;;;;;;;16.20;68.90;;;;;;5036124;28;20372;-79
2024/02/21 03:53:44;;;;;;;;;;;16.20;68.50;;;;;;5035818;28;19931;-79
2024/02/21 03:56:10;;;;;;;;;;;16.20;68.30;;;;;;5035476;28;19917;-79
2024/02/21 03:58:35;;;;;;;;;;;16.20;68.50;;;;;;5035445;28;19915;-79
2024/02/21 04:01:01;;;;;;;;;;;16.20;68.30;;;;;;5035397;28;19920;-79
2024/02/21 04:03:27;;;;;;;;;;;16.30;68.10;;;;;;5035420;28;20335;-69
2024/02/21 04:05:52;;;;;;;;;;;16.20;68.50;;;;;;5035194;28;19909;-69
2024/02/21 04:08:18;;;;;;;;;;;16.20;68.20;;;;;;5035367;28;19932;-69
2024/02/21 04:10:43;;;;;;;;;;;16.20;68.50;;;;;;5035084;28;19955;-69
2024/02/21 04:13:10;;;;;;;;;;;16.20;65.60;;;;;;5034285;28;21474;-69
2024/02/21 04:15:36;;;;;;;;;;;16.30;68.40;;;;;;5035119;28;19963;-69
2024/02/21 04:18:03;;;;;;;;;;;16.20;68.20;;;;;;5035051;28;20024;-69
2024/02/21 04:20:28;;;;;;;;;;;16.20;68.10;;;;;;5035776;28;19909;-69
2024/02/21 04:22:54;;;;;;;;;;;16.20;68.20;;;;;;5034877;28;19909;-69
2024/02/21 04:25:20;;;;;;;;;;;16.20;68.30;;;;;;5034945;28;20012;-69
2024/02/21 04:27:46;;;;;;;;;;;16.20;68.10;;;;;;5034911;28;20024;-70
2024/02/21 04:30:11;;;;;;;;;;;16.20;68.40;;;;;;5035125;28;20375;-70
2024/02/21 04:32:37;;;;;;;;;;;16.40;67.60;;;;;;5034912;28;19916;-70
2024/02/21 04:35:02;;;;;;;;;;;16.20;68.60;;;;;;5033648;28;20309;-70
2024/02/21 04:37:28;;;;;;;;;;;16.20;68.30;;;;;;5034591;28;20402;-70
2024/02/21 04:39:53;;;;;;;;;;;16.20;68.60;;;;;;5034666;28;20441;-70
2024/02/21 04:42:19;;;;;;;;;;;16.20;68.80;;;;;;5034578;28;19916;-70
2024/02/21 04:44:44;;;;;;;;;;;16.10;68.70;;;;;;5034551;28;19910;-69
2024/02/21 04:47:10;;;;;;;;;;;16.10;68.20;;;;;;5034976;28;20368;-79
2024/02/21 04:49:35;;;;;;;;;;;16.20;68.90;;;;;;5034560;28;19917;-78
2024/02/21 04:52:01;;;;;;;;;;;16.20;68.60;;;;;;5034431;28;19969;-79
2024/02/21 04:54:26;;;;;;;;;;;16.20;68.90;;;;;;5034391;28;20363;-79
2024/02/21 04:56:52;;;;;;;;;;;16.30;68.60;;;;;;5034153;28;19923;-79
2024/02/21 04:59:17;;;;;;;;;;;16.20;68.70;;;;;;5034480;28;19909;-79
2024/02/21 05:01:43;;;;;;;;;;;16.30;68.50;;;;;;5034206;28;20007;-78
2024/02/21 05:04:08;;;;;;;;;;;16.20;68.80;;;;;;5034126;28;20384;-79
2024/02/21 05:06:37;;;;;;;;;;;16.20;68.60;;;;;;5034184;28;19913;-79
2024/02/21 05:09:03;;;;;;;;;;;16.30;69.00;;;;;;5034513;28;19940;-79
2024/02/21 05:11:28;;;;;;;;;;;16.30;68.80;;;;;;5034172;28;20348;-79
2024/02/21 05:13:54;;;;;;;;;;;16.30;68.60;;;;;;5033926;28;19955;-79
2024/02/21 05:16:19;;;;;;;;;;;16.30;68.90;;;;;;5033990;28;20293;-79
2024/02/21 05:18:45;;;;;;;;;;;16.30;68.60;;;;;;5033999;28;19909;-79
2024/02/21 05:21:10;;;;;;;;;;;16.30;68.50;;;;;;5034130;28;20298;-79
2024/02/21 05:23:36;;;;;;;;;;;16.40;68.60;;;;;;5033969;28;19996;-79
2024/02/21 05:26:01;;;;;;;;;;;16.30;68.60;;;;;;5033763;28;19909;-79
2024/02/21 05:28:27;;;;;;;;;;;16.40;68.50;;;;;;5033814;28;19913;-79
2024/02/21 05:30:52;;;;;;;;;;;16.30;68.50;;;;;;5033771;28;20394;-79
2024/02/21 05:33:21;;;;;;;;;;;16.50;68.50;;;;;;5033656;28;20358;-79
2024/02/21 05:35:47;;;;;;;;;;;16.30;68.40;;;;;;5034174;28;19939;-79
2024/02/21 05:38:13;;;;;;;;;;;16.30;68.50;;;;;;5033628;28;19910;-78
2024/02/21 05:40:38;;;;;;;;;;;16.30;69.00;;;;;;5033679;28;19971;-79
2024/02/21 05:43:04;;;;;;;;;;;16.40;68.80;;;;;;5033422;28;20397;-79
2024/02/21 05:45:30;;;;;;;;;;;16.30;68.40;;;;;;5033513;28;19910;-79
2024/02/21 05:47:59;;;;;;;;;;;16.30;68.50;;;;;;5033358;28;19909;-69
2024/02/21 05:50:26;;;;;;;;;;;16.60;65.00;;;;;;5033630;28;19917;-69
2024/02/21 05:52:58;;;;;;;;;;;16.40;68.30;;;;;;5033301;28;19920;-69
2024/02/21 05:55:24;;;;;;;;;;;16.40;64.10;;;;;;5033564;28;19916;-69
2024/02/21 05:57:53;;;;;;;;;;;16.40;68.30;;;;;;5033114;28;20283;-69
2024/02/21 06:00:19;;;;;;;;;;;16.30;68.80;;;;;;5033295;28;19916;-69
2024/02/21 06:02:45;;;;;;;;;;;16.40;68.00;;;;;;5033472;28;20411;-79
2024/02/21 06:05:11;;;;;;;;;;;16.40;68.20;;;;;;5033231;28;19913;-79
2024/02/21 06:07:36;;;;;;;;;;;16.40;68.40;;;;;;5033284;28;19932;-79
2024/02/21 06:10:03;;;;;;;;;;;16.30;68.10;;;;;;5033238;28;20000;-79
2024/02/21 06:12:29;;;;;;;;;;;16.40;67.60;;;;;;5032891;28;19910;-79
2024/02/21 06:14:54;;;;;;;;;;;16.40;68.10;;;;;;5033144;28;19915;-79
2024/02/21 06:17:20;;;;;;;;;;;16.30;68.10;;;;;;5033103;28;19924;-79
2024/02/21 06:19:46;;;;;;;;;;;16.40;68.20;;;;;;5032742;28;19909;-77
2024/02/21 06:22:12;;;;;;;;;;;16.30;68.20;;;;;;5033171;28;19909;-78
2024/02/21 06:24:38;;;;;;;;;;;16.30;68.00;;;;;;5033038;28;19913;-77
2024/02/21 06:27:05;;;;;;;;;;;16.40;68.30;;;;;;5040397;28;19909;-77
2024/02/21 06:29:35;;;;;;;;;;;16.50;68.20;;;;;;5033117;28;20265;-77
2024/02/21 06:32:01;;;;;;;;;;;16.30;63.60;;;;;;5033536;28;20105;-80
2024/02/21 06:34:27;;;;;;;;;;;16.40;68.20;;;;;;5032493;28;20309;-78
2024/02/21 06:36:53;;;;;;;;;;;16.40;68.00;;;;;;5032787;28;19970;-80
2024/02/21 06:39:19;;;;;;;;;;;16.30;68.10;;;;;;5032810;28;20248;-79
2024/02/21 06:41:45;;;;;;;;;;;16.40;68.00;;;;;;5032852;28;19944;-77
2024/02/21 06:44:11;;;;;;;;;;;16.40;67.90;;;;;;5032616;28;19920;-71
2024/02/21 06:46:37;;;;;;;;;;;16.40;68.00;;;;;;5032734;28;19909;-71
2024/02/21 06:49:06;;;;;;;;;;;16.40;67.80;;;;;;5032596;28;19916;-72
2024/02/21 06:51:32;;;;;;;;;;;16.40;64.30;;;;;;5032543;28;19958;-71
2024/02/21 06:53:58;;;;;;;;;;;16.40;67.50;;;;;;5032247;28;19996;-71
2024/02/21 06:56:28;;;;;;;;;;;16.60;67.50;;;;;;5032060;28;19918;-71
2024/02/21 06:58:55;;;;;;;;;;;16.40;67.80;;;;;;5031694;28;19932;-71
2024/02/21 07:01:20;;;;;;;;;;;16.40;67.40;;;;;;5032877;28;20000;-71
2024/02/21 07:03:46;;;;;;;;;;;16.30;67.90;;;;;;5031888;28;20390;-71
2024/02/21 07:06:13;;;;;;;;;;;16.40;67.60;;;;;;5032060;28;19940;-71
2024/02/21 07:08:39;;;;;;;;;;;16.60;67.70;;;;;;5032294;28;19909;-69
2024/02/21 07:11:05;;;;;;;;;;;16.30;67.70;;;;;;5032355;28;19913;-71
2024/02/21 07:13:30;;;;;;;;;;;16.30;67.60;;;;;;5031883;28;19913;-71
2024/02/21 07:15:56;;;;;;;;;;;16.40;67.70;;;;;;5031955;28;19909;-71
2024/02/21 07:18:21;;;;;;;;;;;16.30;67.60;;;;;;5031990;28;19921;-71
2024/02/21 07:20:47;;;;;;;;;;;16.30;67.60;;;;;;5031924;28;19952;-72
2024/02/21 07:23:12;;;;;;;;;;;16.30;67.60;;;;;;5032025;28;19989;-71
2024/02/21 07:25:39;;;;;;;;;;;16.20;67.70;;;;;;5031670;28;19909;-71
2024/02/21 07:28:05;;;;;;;;;;;16.30;67.70;;;;;;5032290;28;20395;-71
2024/02/21 07:30:31;;;;;;;;;;;16.30;67.70;;;;;;5031945;28;19985;-71
2024/02/21 07:32:56;;;;;;;;;;;16.30;67.60;;;;;;5031843;28;20314;-71
2024/02/21 07:35:22;;;;;;;;;;;16.30;67.60;;;;;;5031845;28;20304;-71
2024/02/21 07:37:47;;;;;;;;;;;16.30;67.90;;;;;;5031624;28;19971;-71
2024/02/21 07:40:13;;;;;;;;;;;16.30;67.90;;;;;;5031752;28;20298;-71
2024/02/21 07:42:39;;;;;;;;;;;16.30;67.80;;;;;;5031993;28;19913;-71
2024/02/21 07:45:05;;;;;;;;;;;16.30;67.90;;;;;;5031668;28;19915;-71
2024/02/21 07:47:30;;;;;;;;;;;16.30;67.50;;;;;;5031717;28;19916;-71
2024/02/21 07:49:56;;;;;;;;;;;16.30;68.10;;;;;;5031708;28;19915;-71
2024/02/21 07:52:22;;;;;;;;;;;16.40;68.10;;;;;;5032003;28;20012;-71
2024/02/21 07:54:47;;;;;;;;;;;16.30;68.90;;;;;;5031627;28;19909;-71
2024/02/21 07:57:13;;;;;;;;;;;16.30;68.30;;;;;;5032126;28;20080;-71
2024/02/21 07:59:38;;;;;;;;;;;16.30;68.30;;;;;;5031530;28;20387;-71
2024/02/21 08:02:06;;;;;;;;;;;16.30;68.20;;;;;;5031427;28;19916;-71
2024/02/21 08:04:32;;;;;;;;;;;16.30;68.50;;;;;;5031735;28;19971;-71
2024/02/21 08:07:03;;;;;;;;;;;16.30;68.30;;;;;;5031640;28;20316;-71
2024/02/21 08:09:30;;;;;;;;;;;16.70;65.10;;;;;;5033212;28;19909;-71
2024/02/21 08:11:56;;;;;;;;;;;16.30;68.30;;;;;;5035326;28;19940;-71
2024/02/21 08:14:22;;;;;;;;;;;16.30;68.30;;;;;;5038629;28;20353;-69
2024/02/21 08:16:47;;;;;;;;;;;16.30;68.10;;;;;;5036721;28;19917;-72
2024/02/21 08:19:13;;;;;;;;;;;16.30;68.50;;;;;;5035015;28;19948;-72
2024/02/21 08:21:38;;;;;;;;;;;16.40;68.40;;;;;;5034902;28;19909;-75
2024/02/21 08:24:04;;;;;;;;;;;16.30;68.30;;;;;;5017253;28;19909;-71
2024/02/21 08:26:31;;;;;;;;;;;16.40;68.00;;;;;;5035036;28;19916;-71
2024/02/21 08:28:59;;;;;;;;;;;16.40;68.20;;;;;;5034901;28;19909;-72
2024/02/21 08:31:30;;;;;;;;;;;16.30;68.50;;;;;;5034811;28;19934;-72
2024/02/21 08:34:05;;;;;;;;;;;16.40;68.30;;;;;;5034975;28;19916;-71
2024/02/21 08:36:32;;;;;;;;;;;16.30;63.90;;;;;;5034573;28;20406;-71
2024/02/21 08:38:57;;;;;;;;;;;16.40;68.50;;;;;;5034494;28;20008;-71
2024/02/21 08:41:23;;;;;;;;;;;16.40;68.20;;;;;;5016761;28;20403;-72
2024/02/21 08:43:55;;;;;;;;;;;16.40;68.30;;;;;;5034580;28;19909;-72
2024/02/21 08:46:21;;;;;;;;;;;16.40;68.50;;;;;;5034673;28;19913;-71
2024/02/21 08:48:46;;;;;;;;;;;16.40;68.00;;;;;;5034558;28;19932;-71
2024/02/21 08:51:12;;;;;;;;;;;16.30;68.10;;;;;;5034386;28;19909;-71
2024/02/21 08:53:38;;;;;;;;;;;16.30;67.90;;;;;;5034568;28;19909;-71
2024/02/21 08:56:04;;;;;;;;;;;16.30;68.10;;;;;;5034581;28;20020;-71
2024/02/21 08:58:30;;;;;;;;;;;16.40;67.00;;;;;;5034541;28;19914;-71
2024/02/21 09:00:56;;;;;;;;;;;16.40;68.00;;;;;;5033985;28;20391;-71
2024/02/21 09:03:22;;;;;;;;;;;16.30;67.30;;;;;;5034357;28;19964;-71
2024/02/21 09:05:47;;;;;;;;;;;16.40;68.20;;;;;;5033941;28;20451;-71
2024/02/21 09:08:13;;;;;;;;;;;16.40;68.00;;;;;;5034001;28;19988;-71
2024/02/21 09:10:39;;;;;;;;;;;16.30;67.80;;;;;;5033959;28;20291;-71
2024/02/21 09:13:05;;;;;;;;;;;16.40;68.10;;;;;;5033852;28;19909;-71
2024/02/21 09:15:31;;;;;;;;;;;16.30;67.70;;;;;;5034291;28;20371;-71
2024/02/21 09:17:57;;;;;;;;;;;16.40;67.30;;;;;;5033760;28;19917;-71
2024/02/21 09:20:22;;;;;;;;;;;16.40;67.70;;;;;;5033510;28;19943;-71
2024/02/21 09:22:48;;;;;;;;;;;16.40;68.30;;;;;;5033536;28;20304;-71
2024/02/21 09:25:13;;;;;;;;;;;16.40;67.90;;;;;;5033628;28;19909;-70
2024/02/21 09:27:39;;;;;;;;;;;16.40;67.40;;;;;;5033595;28;20067;-71
2024/02/21 09:30:05;;;;;;;;;;;16.40;66.70;;;;;;5033982;28;19909;-71
2024/02/21 09:32:32;;;;;;;;;;;16.30;66.10;;;;;;5033548;28;19913;-70
2024/02/21 09:34:58;;;;;;;;;;;16.40;67.50;;;;;;5033376;28;19916;-71
2024/02/21 09:37:24;;;;;;;;;;;16.40;67.60;;;;;;5033587;28;19924;-70
2024/02/21 09:39:51;;;;;;;;;;;16.40;67.80;;;;;;5033293;28;20283;-71
2024/02/21 09:42:19;;;;;;;;;;;16.30;67.60;;;;;;5033661;28;19956;-71
2024/02/21 09:44:45;;;;;;;;;;;16.40;67.40;;;;;;5033237;28;19909;-71
2024/02/21 09:47:17;;;;;;;;;;;16.30;67.90;;;;;;5033528;28;19920;-71
2024/02/21 09:49:43;;;;;;;;;;;16.40;68.60;;;;;;5033396;28;19963;-71
2024/02/21 09:52:10;;;;;;;;;;;16.40;67.60;;;;;;5033158;28;19909;-70
2024/02/21 09:54:36;;;;;;;;;;;16.40;68.30;;;;;;5033100;28;19913;-71
2024/02/21 09:57:05;;;;;;;;;;;16.30;67.80;;;;;;5032939;28;19975;-71
2024/02/21 09:59:31;;;;;;;;;;;16.40;67.10;;;;;;5033511;28;20342;-71
2024/02/21 10:02:00;;;;;;;;;;;16.40;67.20;;;;;;5032709;28;20334;-71
2024/02/21 10:04:25;;;;;;;;;;;16.40;67.80;;;;;;5033003;28;19909;-71
2024/02/21 10:06:51;;;;;;;;;;;16.40;67.60;;;;;;5032878;28;19917;-71
2024/02/21 10:09:29;;;;;;;;;;;16.40;67.70;;;;;;5032752;28;20261;-71
2024/02/21 10:11:55;;;;;;;;;;;16.60;63.40;;;;;;5032860;28;19913;-71
2024/02/21 10:14:21;;;;;;;;;;;16.60;67.80;;;;;;5033003;28;19913;-71
2024/02/21 10:16:48;;;;;;;;;;;16.30;67.50;;;;;;5032801;28;19920;-71
2024/02/21 10:19:20;;;;;;;;;;;16.40;67.60;;;;;;5032845;28;19949;-71
2024/02/21 10:22:04;;;;;;;;;;;16.40;63.40;;;;;;5032694;28;19913;-71
2024/02/21 10:24:32;;;;;;;;;;;16.40;63.30;;;;;;5032790;28;19959;-71
2024/02/21 10:27:08;;;;;;;;;;;16.40;67.90;;;;;;5032451;28;20016;-71
2024/02/21 10:29:37;;;;;;;;;;;16.30;63.50;;;;;;5032742;28;19909;-78
2024/02/21 10:32:12;;;;;;;;;;;16.40;63.20;;;;;;5032309;28;19910;-78
2024/02/21 10:34:38;;;;;;;;;;;16.30;63.20;;;;;;5032295;28;19909;-77
2024/02/21 10:37:04;;;;;;;;;;;16.30;67.60;;;;;;5032389;28;19921;-77
2024/02/21 10:39:31;;;;;;;;;;;16.30;67.70;;;;;;5032501;28;19966;-77
2024/02/21 10:41:59;;;;;;;;;;;16.10;67.50;;;;;;5032599;28;19910;-78
2024/02/21 10:44:25;;;;;;;;;;;16.40;67.70;;;;;;5032295;28;19982;-78
2024/02/21 10:46:51;;;;;;;;;;;16.40;67.60;;;;;;5032632;28;20287;-78
2024/02/21 10:49:23;;;;;;;;;;;16.40;67.40;;;;;;5032362;28;19915;-78
2024/02/21 10:51:54;;;;;;;;;;;16.40;67.60;;;;;;5032421;28;20406;-78
2024/02/21 10:54:25;;;;;;;;;;;16.30;67.50;;;;;;5032377;28;19909;-78
2024/02/21 10:56:51;;;;;;;;;;;16.40;63.30;;;;;;5032681;28;19917;-78
2024/02/21 10:59:17;;;;;;;;;;;16.30;67.70;;;;;;5032291;28;19909;-78
2024/02/21 11:01:43;;;;;;;;;;;16.40;67.30;;;;;;5032244;28;19909;-78
2024/02/21 11:04:10;;;;;;;;;;;16.30;67.40;;;;;;5032107;28;19921;-78
2024/02/21 11:06:37;;;;;;;;;;;16.40;67.80;;;;;;5032448;28;19952;-76
2024/02/21 11:09:06;;;;;;;;;;;16.40;67.80;;;;;;5014509;28;20347;-78
2024/02/21 11:11:37;;;;;;;;;;;16.40;63.00;;;;;;5032176;28;20664;-78
2024/02/21 11:14:05;;;;;;;;;;;16.40;63.10;;;;;;5032220;28;20370;-78
2024/02/21 11:16:35;;;;;;;;;;;16.30;63.10;;;;;;5032299;28;20387;-76
2024/02/21 11:19:04;;;;;;;;;;;16.30;67.40;;;;;;5032341;28;20342;-75
2024/02/21 11:21:36;;;;;;;;;;;16.40;63.20;;;;;;5032365;28;19909;-75
2024/02/21 11:27:21;;;;;;;;;;;16.60;63.20;;;;;;5038854;28;20019;-76
2024/02/21 11:29:47;;;;;;;;;;;16.30;63.10;;;;;;5032152;28;19931;-76
2024/02/21 11:32:16;;;;;;;;;;;16.30;67.50;;;;;;5031943;28;19909;-76
2024/02/21 11:34:53;;;;;;;;;;;16.30;63.00;;;;;;5029980;28;19920;-75
2024/02/21 11:37:19;;;;;;;;;;;16.30;67.40;;;;;;5032109;28;19918;-84
2024/02/21 11:39:44;;;;;;;;;;;16.30;67.40;;;;;;5014467;28;19909;-74
2024/02/21 11:42:10;;;;;;;;;;;16.30;67.80;;;;;;5031775;28;20318;-73
2024/02/21 11:44:42;;;;;;;;;;;16.30;67.60;;;;;;5033927;28;20378;-76
2024/02/21 11:50:10;;;;;;;;;;;16.30;63.10;;;;;;5042193;28;20378;-82
2024/02/21 11:52:36;;;;;;;;;;;16.30;66.60;;;;;;5035694;28;20413;-77
2024/02/21 11:55:04;;;;;;;;;;;16.30;67.30;;;;;;5035664;28;20090;-77
2024/02/21 11:57:30;;;;;;;;;;;16.30;66.50;;;;;;5035446;28;20298;-76
2024/02/21 11:59:55;;;;;;;;;;;16.40;67.20;;;;;;5017607;28;20008;-77
2024/02/21 12:02:21;;;;;;;;;;;16.30;67.00;;;;;;5035249;28;19988;-77
2024/02/21 12:04:49;;;;;;;;;;;16.40;67.40;;;;;;5035107;28;19955;-77
2024/02/21 12:07:14;;;;;;;;;;;16.30;67.50;;;;;;5035251;28;20407;-74
2024/02/21 12:09:41;;;;;;;;;;;16.30;67.70;;;;;;5035546;28;19941;-77
2024/02/21 12:12:07;;;;;;;;;;;16.30;67.50;;;;;;5035465;28;19952;-76
2024/02/21 12:14:34;;;;;;;;;;;16.30;67.10;;;;;;5035456;28;20327;-76
2024/02/21 12:17:01;;;;;;;;;;;16.30;67.50;;;;;;5035055;28;19939;-76
2024/02/21 12:19:29;;;;;;;;;;;16.40;67.40;;;;;;5035063;28;19909;-76
2024/02/21 12:21:55;;;;;;;;;;;16.30;67.60;;;;;;5034950;28;19909;-76
2024/02/21 12:24:24;;;;;;;;;;;16.30;67.30;;;;;;5035314;28;19916;-76
2024/02/21 12:26:52;;;;;;;;;;;16.30;63.20;;;;;;5034972;28;19910;-77
2024/02/21 12:29:17;;;;;;;;;;;16.30;67.50;;;;;;5035192;28;19909;-76
2024/02/21 12:31:43;;;;;;;;;;;16.30;66.70;;;;;;5034825;28;19917;-77
2024/02/21 12:34:09;;;;;;;;;;;16.30;67.30;;;;;;5034728;28;19909;-76
2024/02/21 12:36:36;;;;;;;;;;;16.40;67.40;;;;;;5034831;28;19975;-76
2024/02/21 12:39:03;;;;;;;;;;;16.30;67.50;;;;;;5034820;28;19913;-76
2024/02/21 12:41:29;;;;;;;;;;;16.20;66.70;;;;;;5035125;28;19971;-76
2024/02/21 12:43:56;;;;;;;;;;;16.30;67.40;;;;;;5034671;28;19913;-76
2024/02/21 12:46:21;;;;;;;;;;;16.30;67.20;;;;;;5034868;28;19919;-76
2024/02/21 12:48:47;;;;;;;;;;;16.30;67.40;;;;;;5034565;28;19910;-76
2024/02/21 12:51:13;;;;;;;;;;;16.30;67.00;;;;;;5034520;28;19917;-76
2024/02/21 12:53:39;;;;;;;;;;;16.30;67.20;;;;;;5034622;28;19916;-76
2024/02/21 12:56:06;;;;;;;;;;;16.20;67.20;;;;;;5033427;28;19908;-76
2024/02/21 12:58:32;;;;;;;;;;;16.30;66.30;;;;;;5034863;28;19917;-76
2024/02/21 13:00:57;;;;;;;;;;;16.30;67.20;;;;;;5034389;28;19916;-76
2024/02/21 13:03:22;;;;;;;;;;;16.30;66.50;;;;;;5034088;28;19921;-76
2024/02/21 13:05:48;;;;;;;;;;;16.30;67.30;;;;;;5034266;28;20027;-76
2024/02/21 13:08:13;;;;;;;;;;;16.20;67.10;;;;;;5034245;28;19909;-77
2024/02/21 13:10:39;;;;;;;;;;;16.30;67.00;;;;;;5034048;28;19916;-76
2024/02/21 13:13:05;;;;;;;;;;;16.30;67.00;;;;;;5034111;28;19909;-76
2024/02/21 13:15:30;;;;;;;;;;;16.30;67.00;;;;;;5034132;28;19913;-76
2024/02/21 13:17:57;;;;;;;;;;;16.20;66.90;;;;;;5034005;28;20024;-76
2024/02/21 13:20:23;;;;;;;;;;;16.20;67.30;;;;;;5034312;28;19909;-77
2024/02/21 13:22:48;;;;;;;;;;;16.20;66.90;;;;;;5034001;28;19909;-76
2024/02/21 13:25:20;;;;;;;;;;;16.20;67.30;;;;;;5033765;28;20225;-76
2024/02/21 13:27:45;;;;;;;;;;;16.20;63.70;;;;;;5034072;28;19916;-77
2024/02/21 13:30:11;;;;;;;;;;;16.20;66.90;;;;;;5034077;28;19913;-76
2024/02/21 13:32:37;;;;;;;;;;;16.20;66.20;;;;;;5033746;28;20288;-78
2024/02/21 13:35:03;;;;;;;;;;;16.20;66.60;;;;;;5033742;28;19963;-75
2024/02/21 13:37:29;;;;;;;;;;;16.20;66.30;;;;;;5033503;28;20372;-75
2024/02/21 13:39:55;;;;;;;;;;;16.20;66.50;;;;;;5033633;28;20009;-76
2024/02/21 13:42:21;;;;;;;;;;;16.30;66.90;;;;;;5033823;28;19950;-76
2024/02/21 13:44:47;;;;;;;;;;;16.20;67.00;;;;;;5034175;28;19909;-70
2024/02/21 13:47:14;;;;;;;;;;;16.20;66.80;;;;;;5033233;28;20000;-69
2024/02/21 13:49:39;;;;;;;;;;;16.20;67.10;;;;;;5033313;28;19978;-70
2024/02/21 13:52:05;;;;;;;;;;;16.20;67.00;;;;;;5033140;28;20375;-71
2024/02/21 13:54:30;;;;;;;;;;;16.30;66.80;;;;;;5033461;28;19935;-71
2024/02/21 13:56:56;;;;;;;;;;;16.20;67.10;;;;;;5033050;28;20320;-71
2024/02/21 13:59:22;;;;;;;;;;;16.20;67.00;;;;;;5033233;28;19916;-71
2024/02/21 14:01:48;;;;;;;;;;;16.20;66.30;;;;;;5032867;28;19954;-71
2024/02/21 14:04:13;;;;;;;;;;;16.10;66.60;;;;;;5032953;28;19918;-71
2024/02/21 14:06:43;;;;;;;;;;;16.20;66.90;;;;;;5032851;28;19909;-71
2024/02/21 14:09:09;;;;;;;;;;;16.10;63.30;;;;;;5033205;28;19909;-71
2024/02/21 14:11:35;;;;;;;;;;;16.10;67.00;;;;;;5033163;28;19909;-70
2024/02/21 14:14:01;;;;;;;;;;;16.20;67.20;;;;;;5032771;28;19959;-71
2024/02/21 14:16:26;;;;;;;;;;;16.20;67.00;;;;;;5032819;28;20004;-71